createdAt,value
2023-01-18T00:01:08.618Z,0.40
2023-01-18T00:03:36.516Z,0.40
2023-01-18T00:06:04.755Z,0.40
2023-01-18T00:08:32.136Z,0.50
2023-01-18T00:11:06.633Z,0.50
2023-01-18T00:13:33.630Z,0.50
2023-01-18T00:16:07.716Z,0.60
2023-01-18T00:18:35.882Z,0.60
2023-01-18T00:21:03.452Z,0.70
2023-01-18T00:23:30.007Z,0.70
2023-01-18T00:26:03.022Z,0.80
2023-01-18T00:28:29.589Z,0.80
2023-01-18T00:30:55.847Z,0.80
2023-01-18T00:33:23.061Z,0.80
2023-01-18T00:36:01.795Z,0.80
2023-01-18T00:38:28.251Z,0.70
2023-01-18T00:40:54.527Z,1.00
2023-01-18T00:43:39.320Z,0.70
2023-01-18T00:46:11.081Z,0.60
2023-01-18T00:48:41.187Z,0.60
2023-01-18T00:51:09.953Z,0.70
2023-01-18T00:53:39.518Z,0.60
2023-01-18T00:56:09.751Z,0.60
2023-01-18T00:58:37.044Z,0.50
2023-01-18T01:01:04.546Z,0.50
2023-01-18T01:06:43.263Z,1.70
2023-01-18T01:09:31.202Z,0.40
2023-01-18T01:12:16.857Z,0.40
2023-01-18T01:15:04.753Z,0.40
2023-01-18T01:17:50.784Z,0.50
2023-01-18T01:20:36.056Z,0.50
2023-01-18T01:23:45.906Z,0.60
2023-01-18T01:26:12.042Z,0.50
2023-01-18T01:28:42.663Z,0.50
2023-01-18T01:31:10.861Z,0.50
2023-01-18T01:33:37.163Z,0.50
2023-01-18T01:36:08.590Z,0.50
2023-01-18T01:38:34.763Z,2.60
2023-01-18T01:41:05.785Z,0.80
2023-01-18T01:44:53.715Z,0.40
2023-01-18T01:47:41.330Z,0.40
2023-01-18T01:50:26.121Z,0.40
2023-01-18T01:52:52.236Z,0.40
2023-01-18T01:56:19.592Z,0.40
2023-01-18T01:58:47.325Z,0.40
2023-01-18T02:01:15.293Z,0.30
2023-01-18T02:03:42.138Z,0.20
2023-01-18T02:06:24.163Z,0.30
2023-01-18T02:08:50.302Z,0.30
2023-01-18T02:11:17.031Z,0.30
2023-01-18T02:13:43.361Z,0.40
2023-01-18T02:20:50.651Z,0.40
2023-01-18T02:26:10.429Z,0.40
2023-01-18T02:28:37.109Z,0.40
2023-01-18T02:31:25.633Z,0.40
2023-01-18T02:34:04.316Z,0.40
2023-01-18T02:36:41.602Z,0.40
2023-01-18T02:39:23.975Z,0.40
2023-01-18T02:42:11.893Z,0.40
2023-01-18T02:45:01.884Z,0.40
2023-01-18T02:47:29.133Z,0.60
2023-01-18T02:49:56.749Z,0.50
2023-01-18T02:53:23.863Z,0.50
2023-01-18T02:56:08.777Z,0.60
2023-01-18T02:58:43.150Z,0.50
2023-01-18T03:01:17.662Z,0.50
2023-01-18T03:03:45.891Z,1.00
2023-01-18T03:06:12.023Z,0.50
2023-01-18T03:08:46.712Z,0.60
2023-01-18T03:11:23.553Z,0.70
2023-01-18T03:16:22.262Z,0.80
2023-01-18T03:19:01.403Z,0.80
2023-01-18T03:21:48.438Z,0.90
2023-01-18T03:24:14.891Z,1.00
2023-01-18T03:26:46.964Z,1.00
2023-01-18T03:29:33.028Z,1.10
2023-01-18T03:32:27.284Z,1.40
2023-01-18T03:35:14.910Z,1.20
2023-01-18T03:37:42.470Z,1.20
2023-01-18T03:40:13.828Z,1.30
2023-01-18T03:44:35.175Z,1.40
2023-01-18T03:47:02.554Z,1.30
2023-01-18T03:49:29.032Z,1.40
2023-01-18T03:52:14.875Z,1.40
2023-01-18T03:55:01.470Z,1.40
2023-01-18T03:58:13.305Z,1.40
2023-01-18T04:00:39.554Z,1.50
2023-01-18T04:03:05.885Z,1.50
2023-01-18T04:05:33.673Z,1.50
2023-01-18T04:08:01.097Z,1.50
2023-01-18T04:10:27.249Z,1.50
2023-01-18T04:12:53.367Z,1.50
2023-01-18T04:15:20.598Z,1.50
2023-01-18T04:17:52.538Z,1.40
2023-01-18T04:20:18.796Z,1.40
2023-01-18T04:22:55.243Z,1.40
2023-01-18T04:25:21.696Z,1.40
2023-01-18T04:27:47.919Z,1.30
2023-01-18T04:30:14.752Z,1.30
2023-01-18T04:32:42.461Z,1.30
2023-01-18T04:35:10.768Z,1.30
2023-01-18T04:37:37.714Z,1.30
2023-01-18T04:40:05.654Z,1.30
2023-01-18T04:42:32.176Z,1.30
2023-01-18T04:44:59.604Z,1.30
2023-01-18T04:47:29.892Z,1.30
2023-01-18T04:49:57.045Z,1.30
2023-01-18T04:52:24.678Z,1.30
2023-01-18T04:54:51.054Z,1.30
2023-01-18T04:57:17.226Z,2.80
2023-01-18T04:59:45.167Z,-1.80
2023-01-18T05:02:12.422Z,1.10
2023-01-18T05:04:38.832Z,1.20
2023-01-18T05:07:05.004Z,1.20
2023-01-18T05:09:31.151Z,1.20
2023-01-18T05:11:57.313Z,1.20
2023-01-18T05:14:24.851Z,1.20
2023-01-18T05:16:51.441Z,1.30
2023-01-18T05:19:18.715Z,1.20
2023-01-18T05:21:45.144Z,1.20
2023-01-18T05:24:11.899Z,1.20
2023-01-18T05:26:38.356Z,1.20
2023-01-18T05:29:04.496Z,1.30
2023-01-18T05:31:30.763Z,1.20
2023-01-18T05:33:57.005Z,1.20
2023-01-18T05:36:23.200Z,1.30
2023-01-18T05:38:49.343Z,1.30
2023-01-18T05:41:15.820Z,1.30
2023-01-18T05:43:42.134Z,1.40
2023-01-18T05:46:08.740Z,1.30
2023-01-18T05:48:35.058Z,1.30
2023-01-18T05:51:07.407Z,1.30
2023-01-18T05:53:33.531Z,1.30
2023-01-18T05:56:01.228Z,1.30
2023-01-18T05:58:27.384Z,1.50
2023-01-18T06:00:54.077Z,1.30
2023-01-18T06:03:20.985Z,1.30
2023-01-18T06:05:47.881Z,1.30
2023-01-18T06:08:15.188Z,1.30
2023-01-18T06:10:41.916Z,1.20
2023-01-18T06:13:08.144Z,1.30
2023-01-18T06:15:34.675Z,1.20
2023-01-18T06:18:01.150Z,1.20
2023-01-18T06:20:30.312Z,1.20
2023-01-18T06:22:59.893Z,1.20
2023-01-18T06:25:26.800Z,1.20
2023-01-18T06:27:53.019Z,1.20
2023-01-18T06:30:20.350Z,1.20
2023-01-18T06:32:50.444Z,1.20
2023-01-18T06:35:16.917Z,-0.30
2023-01-18T06:37:44.149Z,1.30
2023-01-18T06:40:11.408Z,1.20
2023-01-18T06:42:39.283Z,1.30
2023-01-18T06:45:06.764Z,1.20
2023-01-18T06:47:33.674Z,1.20
2023-01-18T06:50:00.205Z,1.20
2023-01-18T06:52:27.479Z,1.20
2023-01-18T06:54:53.784Z,1.20
2023-01-18T06:57:19.901Z,1.20
2023-01-18T06:59:46.445Z,1.20
2023-01-18T07:02:13.809Z,1.20
2023-01-18T07:04:44.442Z,1.20
2023-01-18T07:07:12.477Z,1.20
2023-01-18T07:09:38.723Z,1.20
2023-01-18T07:12:05.364Z,-0.20
2023-01-18T07:14:31.801Z,1.20
2023-01-18T07:16:58.373Z,1.20
2023-01-18T07:19:24.535Z,1.20
2023-01-18T07:21:54.493Z,1.20
2023-01-18T07:24:21.883Z,1.20
2023-01-18T07:26:48.198Z,1.30
2023-01-18T07:29:14.372Z,1.20
2023-01-18T07:31:42.207Z,1.30
2023-01-18T07:34:09.604Z,1.30
2023-01-18T07:36:38.636Z,1.30
2023-01-18T07:39:06.029Z,1.30
2023-01-18T07:41:32.385Z,1.30
2023-01-18T07:43:59.028Z,1.40
2023-01-18T07:46:25.715Z,1.40
2023-01-18T07:48:52.597Z,1.40
2023-01-18T07:51:20.299Z,1.40
2023-01-18T07:53:47.065Z,1.40
2023-01-18T07:56:14.655Z,1.50
2023-01-18T07:58:40.851Z,1.50
2023-01-18T08:01:14.906Z,1.50
2023-01-18T08:03:42.524Z,1.50
2023-01-18T08:06:08.850Z,1.60
2023-01-18T08:08:36.261Z,1.60
2023-01-18T08:11:03.830Z,1.50
2023-01-18T08:13:30.333Z,1.60
2023-01-18T08:15:59.229Z,1.60
2023-01-18T08:18:26.479Z,1.60
2023-01-18T08:20:55.159Z,3.00
2023-01-18T08:23:22.075Z,1.60
2023-01-18T08:25:49.570Z,1.60
2023-01-18T08:28:16.680Z,1.70
2023-01-18T08:30:45.303Z,1.70
2023-01-18T08:33:12.631Z,1.70
2023-01-18T08:35:46.452Z,1.70
2023-01-18T08:38:14.833Z,1.60
2023-01-18T08:40:41.117Z,1.70
2023-01-18T08:43:08.609Z,1.70
2023-01-18T08:45:35.299Z,1.70
2023-01-18T08:48:05.990Z,1.70
2023-01-18T08:50:32.621Z,1.70
2023-01-18T08:52:59.733Z,1.70
2023-01-18T08:55:27.019Z,1.80
2023-01-18T08:57:53.857Z,1.70
2023-01-18T09:00:22.731Z,1.80
2023-01-18T09:02:49.524Z,1.80
2023-01-18T09:05:16.754Z,1.80
2023-01-18T09:07:44.817Z,1.90
2023-01-18T09:10:11.830Z,1.80
2023-01-18T09:12:38.291Z,1.70
2023-01-18T09:15:05.909Z,1.90
2023-01-18T09:17:32.545Z,1.80
2023-01-18T09:19:59.264Z,1.90
2023-01-18T09:22:25.878Z,1.80
2023-01-18T09:24:52.089Z,1.80
2023-01-18T09:27:18.400Z,1.80
2023-01-18T09:29:52.338Z,1.80
2023-01-18T09:32:20.523Z,1.80
2023-01-18T09:34:50.419Z,1.70
2023-01-18T09:37:18.399Z,1.70
2023-01-18T09:39:51.700Z,1.70
2023-01-18T09:42:29.456Z,1.70
2023-01-18T09:44:58.031Z,1.70
2023-01-18T09:47:29.816Z,1.70
2023-01-18T09:50:02.530Z,1.70
2023-01-18T09:53:20.745Z,1.70
2023-01-18T09:56:16.535Z,1.60
2023-01-18T10:00:22.016Z,1.60
2023-01-18T10:02:52.538Z,1.60
2023-01-18T10:05:24.732Z,1.60
2023-01-18T10:08:25.201Z,1.60
2023-01-18T10:11:09.898Z,1.70
2023-01-18T10:16:14.158Z,1.80
2023-01-18T10:18:47.624Z,1.80
2023-01-18T10:22:37.405Z,1.80
2023-01-18T10:25:15.718Z,1.90
2023-01-18T10:29:16.809Z,2.00
2023-01-18T10:32:07.473Z,2.00
2023-01-18T10:34:41.335Z,2.00
2023-01-18T10:37:26.866Z,2.10
2023-01-18T10:40:06.113Z,2.00
2023-01-18T10:42:44.607Z,2.10
2023-01-18T10:45:21.213Z,2.10
2023-01-18T10:47:51.809Z,2.10
2023-01-18T10:50:22.503Z,2.20
2023-01-18T10:52:52.259Z,2.20
2023-01-18T10:55:19.685Z,0.60
2023-01-18T10:57:47.363Z,2.30
2023-01-18T11:00:25.891Z,2.30
2023-01-18T11:02:52.797Z,2.30
2023-01-18T11:05:34.468Z,2.30
2023-01-18T11:08:22.162Z,2.20
2023-01-18T11:11:15.680Z,2.20
2023-01-18T11:13:43.938Z,2.30
2023-01-18T11:16:21.492Z,2.30
2023-01-18T11:19:52.739Z,2.40
2023-01-18T11:22:18.905Z,1.90
2023-01-18T11:24:45.401Z,2.60
2023-01-18T11:27:22.443Z,2.70
2023-01-18T11:29:49.801Z,2.70
2023-01-18T11:32:24.397Z,2.70
2023-01-18T11:35:00.366Z,2.70
2023-01-18T11:37:45.936Z,2.60
2023-01-18T11:40:29.531Z,2.50
2023-01-18T11:43:20.443Z,2.50
2023-01-18T11:46:12.149Z,2.40
2023-01-18T11:48:49.289Z,2.50
2023-01-18T11:51:48.011Z,2.50
2023-01-18T11:54:39.550Z,2.50
2023-01-18T11:57:10.081Z,2.60
2023-01-18T11:59:45.011Z,2.70
2023-01-18T12:03:51.588Z,2.70
2023-01-18T12:06:32.683Z,2.70
2023-01-18T12:09:33.810Z,2.50
2023-01-18T12:12:29.628Z,2.50
2023-01-18T12:15:34.281Z,2.60
2023-01-18T12:25:09.126Z,2.50
2023-01-18T12:27:49.491Z,2.50
2023-01-18T12:30:34.973Z,2.60
2023-01-18T12:33:51.820Z,2.50
2023-01-18T12:38:56.665Z,2.40
2023-01-18T12:43:03.625Z,3.00
2023-01-18T12:45:42.227Z,2.60
2023-01-18T12:49:20.655Z,2.50
2023-01-18T12:51:53.949Z,2.50
2023-01-18T12:54:41.064Z,2.50
2023-01-18T12:57:07.272Z,2.50
2023-01-18T13:00:41.915Z,2.50
2023-01-18T13:03:22.026Z,2.60
2023-01-18T13:06:00.838Z,2.40
2023-01-18T13:08:44.661Z,2.60
2023-01-18T13:11:20.546Z,2.60
2023-01-18T13:13:46.864Z,2.60
2023-01-18T13:19:13.345Z,2.60
2023-01-18T13:22:00.655Z,2.70
2023-01-18T13:24:53.240Z,2.80
2023-01-18T13:27:19.886Z,2.80
2023-01-18T13:29:46.119Z,2.90
2023-01-18T13:32:30.710Z,2.90
2023-01-18T13:35:19.188Z,2.80
2023-01-18T13:37:55.939Z,2.80
2023-01-18T13:40:34.500Z,2.80
2023-01-18T13:43:01.976Z,2.80
2023-01-18T13:45:29.335Z,2.80
2023-01-18T13:48:07.156Z,2.80
2023-01-18T13:50:44.908Z,2.80
2023-01-18T13:53:21.672Z,2.70
2023-01-18T13:56:23.186Z,2.60
2023-01-18T13:59:45.982Z,2.50
2023-01-18T14:02:33.934Z,2.40
2023-01-18T14:05:46.600Z,2.30
2023-01-18T14:08:24.439Z,2.30
2023-01-18T14:10:55.209Z,2.30
2023-01-18T14:15:02.359Z,2.30
2023-01-18T14:17:29.612Z,2.30
2023-01-18T14:20:40.366Z,2.30
2023-01-18T14:26:57.698Z,2.20
2023-01-18T14:29:45.776Z,2.20
2023-01-18T14:32:16.926Z,2.10
2023-01-18T14:34:44.434Z,2.10
2023-01-18T14:37:33.531Z,2.10
2023-01-18T14:40:34.601Z,2.20
2023-01-18T14:43:05.406Z,2.20
2023-01-18T14:45:35.148Z,2.20
2023-01-18T14:48:35.318Z,2.20
2023-01-18T14:51:02.645Z,2.10
2023-01-18T14:53:34.603Z,2.10
2023-01-18T14:56:22.519Z,2.10
2023-01-18T14:59:04.980Z,2.10
2023-01-18T15:01:37.807Z,2.00
2023-01-18T15:04:06.890Z,2.00
2023-01-18T15:06:45.679Z,2.00
2023-01-18T15:09:12.130Z,2.00
2023-01-18T15:11:39.887Z,2.00
2023-01-18T15:14:45.019Z,2.00
2023-01-18T15:17:20.858Z,2.00
2023-01-18T15:19:49.360Z,2.00
2023-01-18T15:22:16.094Z,2.00
2023-01-18T15:24:44.090Z,2.10
2023-01-18T15:27:18.698Z,2.00
2023-01-18T15:29:50.178Z,2.10
2023-01-18T15:32:19.699Z,2.10
2023-01-18T15:34:47.019Z,2.10
2023-01-18T15:37:24.203Z,2.20
2023-01-18T15:40:01.276Z,2.10
2023-01-18T15:43:06.269Z,2.20
2023-01-18T15:45:39.292Z,2.20
2023-01-18T15:48:12.680Z,2.20
2023-01-18T15:50:52.838Z,2.20
2023-01-18T15:53:34.162Z,2.20
2023-01-18T15:56:08.302Z,2.20
2023-01-18T15:58:55.936Z,2.20
2023-01-18T16:01:28.726Z,2.20
2023-01-18T16:04:03.793Z,2.20
2023-01-18T16:06:38.769Z,2.20
2023-01-18T16:09:40.746Z,2.20
2023-01-18T16:12:07.432Z,2.10
2023-01-18T16:14:34.879Z,2.20
2023-01-18T16:17:19.636Z,2.20
2023-01-18T16:19:50.929Z,2.20
2023-01-18T16:22:34.786Z,2.20
2023-01-18T16:25:16.144Z,2.20
2023-01-18T16:27:51.374Z,2.10
2023-01-18T16:30:34.480Z,2.20
2023-01-18T16:33:17.602Z,2.20
2023-01-18T16:35:45.148Z,2.20
2023-01-18T16:38:12.177Z,2.20
2023-01-18T16:40:40.386Z,2.20
2023-01-18T16:43:20.109Z,2.10
2023-01-18T16:45:47.532Z,2.20
2023-01-18T16:48:20.128Z,2.20
2023-01-18T16:50:47.221Z,2.20
2023-01-18T16:53:15.321Z,2.20
2023-01-18T16:55:45.165Z,2.20
2023-01-18T16:58:15.283Z,2.20
2023-01-18T17:01:20.498Z,2.20
2023-01-18T17:03:48.455Z,2.10
2023-01-18T17:06:20.251Z,2.10
2023-01-18T17:08:51.513Z,2.10
2023-01-18T17:11:19.981Z,2.10
2023-01-18T17:13:48.072Z,2.20
2023-01-18T17:16:16.263Z,2.20
2023-01-18T17:18:42.781Z,2.20
2023-01-18T17:21:09.876Z,2.20
2023-01-18T17:23:36.793Z,2.20
2023-01-18T17:26:04.730Z,2.20
2023-01-18T17:28:32.401Z,2.20
2023-01-18T17:30:58.713Z,2.20
2023-01-18T17:33:25.255Z,2.20
2023-01-18T17:35:53.804Z,2.20
2023-01-18T17:38:26.222Z,2.30
2023-01-18T17:40:54.801Z,2.30
2023-01-18T17:43:36.571Z,2.30
2023-01-18T17:46:04.115Z,2.30
2023-01-18T17:48:30.568Z,2.20
2023-01-18T17:50:57.585Z,2.30
2023-01-18T17:53:23.813Z,2.20
2023-01-18T17:55:50.218Z,2.30
2023-01-18T17:58:17.559Z,2.30
2023-01-18T18:00:45.014Z,2.30
2023-01-18T18:03:13.025Z,2.20
2023-01-18T18:05:39.881Z,2.30
2023-01-18T18:08:07.125Z,2.20
2023-01-18T18:10:33.498Z,2.30
2023-01-18T18:13:00.186Z,2.30
2023-01-18T18:15:28.292Z,2.20
2023-01-18T18:17:55.044Z,2.20
2023-01-18T18:20:22.874Z,2.20
2023-01-18T18:22:50.347Z,2.30
2023-01-18T18:25:16.926Z,2.20
2023-01-18T18:27:46.095Z,2.20
2023-01-18T18:30:15.117Z,2.30
2023-01-18T18:32:41.609Z,2.20
2023-01-18T18:35:24.509Z,2.20
2023-01-18T18:37:54.751Z,2.20
2023-01-18T18:40:21.231Z,2.20
2023-01-18T18:43:00.739Z,2.20
2023-01-18T18:45:30.870Z,2.20
2023-01-18T18:47:57.646Z,2.20
2023-01-18T18:50:24.444Z,2.10
2023-01-18T18:52:51.694Z,2.10
2023-01-18T18:55:20.083Z,2.10
2023-01-18T18:57:48.235Z,2.10
2023-01-18T19:00:16.119Z,2.10
2023-01-18T19:02:42.625Z,2.10
2023-01-18T19:05:10.669Z,2.10
2023-01-18T19:07:36.937Z,2.10
2023-01-18T19:10:04.910Z,2.10
2023-01-18T19:12:33.360Z,2.10
2023-01-18T19:15:01.350Z,2.00
2023-01-18T19:17:31.103Z,-0.10
2023-01-18T19:20:01.627Z,2.10
2023-01-18T19:22:28.270Z,2.10
2023-01-18T19:24:54.688Z,2.20
2023-01-18T19:27:26.204Z,0.50
2023-01-18T19:29:53.105Z,2.10
2023-01-18T19:32:19.987Z,2.10
2023-01-18T19:34:46.611Z,2.10
2023-01-18T19:37:14.694Z,2.10
2023-01-18T19:39:42.601Z,2.10
2023-01-18T19:42:09.515Z,2.10
2023-01-18T19:44:36.244Z,2.10
2023-01-18T19:47:03.651Z,2.00
2023-01-18T19:49:30.359Z,2.00
2023-01-18T19:51:58.487Z,2.10
2023-01-18T19:54:26.657Z,2.00
2023-01-18T19:56:54.519Z,2.00
2023-01-18T19:59:21.824Z,2.00
2023-01-18T20:01:49.951Z,2.10
2023-01-18T20:04:18.325Z,2.10
2023-01-18T20:06:46.245Z,2.00
2023-01-18T20:09:19.650Z,2.00
2023-01-18T20:11:48.008Z,2.10
2023-01-18T20:14:15.575Z,2.10
2023-01-18T20:16:44.514Z,2.10
2023-01-18T20:19:13.323Z,2.10
2023-01-18T20:21:40.940Z,2.10
2023-01-18T20:24:08.879Z,2.10
2023-01-18T20:26:37.727Z,2.10
2023-01-18T20:29:08.141Z,2.10
2023-01-18T20:31:36.406Z,1.30
2023-01-18T20:34:03.247Z,2.10
2023-01-18T20:36:29.933Z,2.10
2023-01-18T20:38:56.600Z,2.10
2023-01-18T20:41:23.790Z,2.20
2023-01-18T20:43:51.057Z,2.20
2023-01-18T20:46:17.282Z,2.20
2023-01-18T20:48:43.838Z,2.20
2023-01-18T20:51:13.851Z,2.20
2023-01-18T20:53:43.595Z,2.10
2023-01-18T20:56:27.928Z,2.10
2023-01-18T20:58:54.849Z,2.10
2023-01-18T21:01:22.949Z,2.10
2023-01-18T21:03:55.616Z,2.10
2023-01-18T21:06:22.415Z,2.00
2023-01-18T21:08:54.110Z,1.90
2023-01-18T21:11:26.399Z,1.90
2023-01-18T21:13:54.053Z,1.90
2023-01-18T21:16:23.057Z,1.90
2023-01-18T21:18:51.975Z,1.90
2023-01-18T21:21:18.645Z,2.00
2023-01-18T21:23:44.874Z,1.90
2023-01-18T21:26:11.944Z,1.90
2023-01-18T21:28:39.029Z,1.90
2023-01-18T21:31:07.034Z,1.90
2023-01-18T21:33:34.949Z,1.80
2023-01-18T21:36:10.059Z,1.90
2023-01-18T21:38:36.369Z,1.90
2023-01-18T21:41:21.308Z,1.90
2023-01-18T21:44:07.056Z,1.90
2023-01-18T21:46:33.304Z,1.90
2023-01-18T21:49:04.743Z,1.90
2023-01-18T21:51:50.663Z,2.00
2023-01-18T21:54:18.036Z,2.00
2023-01-18T21:56:45.996Z,2.00
2023-01-18T21:59:12.879Z,2.00
2023-01-18T22:01:43.097Z,2.00
2023-01-18T22:04:31.847Z,2.00
2023-01-18T22:06:59.552Z,2.00
2023-01-18T22:09:29.413Z,2.00
2023-01-18T22:11:56.956Z,2.00
2023-01-18T22:14:23.587Z,2.00
2023-01-18T22:16:50.739Z,1.90
2023-01-18T22:19:18.891Z,2.00
2023-01-18T22:21:45.868Z,1.90
2023-01-18T22:24:12.302Z,1.90
2023-01-18T22:26:39.331Z,1.90
2023-01-18T22:29:06.145Z,1.80
2023-01-18T22:31:33.777Z,1.80
2023-01-18T22:34:00.366Z,1.80
2023-01-18T22:36:27.235Z,1.70
2023-01-18T22:38:53.546Z,1.70
2023-01-18T22:41:24.795Z,1.70
2023-01-18T22:43:51.115Z,1.60
2023-01-18T22:46:19.535Z,1.60
2023-01-18T22:48:46.660Z,1.60
2023-01-18T22:51:23.270Z,1.60
2023-01-18T22:53:50.381Z,1.60
2023-01-18T22:56:20.795Z,1.50
2023-01-18T22:58:47.168Z,1.50
2023-01-18T23:01:24.766Z,-0.10
2023-01-18T23:03:53.880Z,1.50
2023-01-18T23:06:20.752Z,1.50
2023-01-18T23:08:47.299Z,1.50
2023-01-18T23:11:19.132Z,1.50
2023-01-18T23:17:37.944Z,1.50
2023-01-18T23:20:05.872Z,1.50
2023-01-18T23:22:32.921Z,1.40
2023-01-18T23:24:59.581Z,1.40
2023-01-18T23:27:25.932Z,1.40
2023-01-18T23:29:56.540Z,1.40
2023-01-18T23:32:27.779Z,1.40
2023-01-18T23:34:55.028Z,1.40
2023-01-18T23:37:22.029Z,1.40
2023-01-18T23:40:07.462Z,1.40
2023-01-18T23:42:52.834Z,1.30
2023-01-18T23:45:38.507Z,1.30
2023-01-18T23:48:32.481Z,1.40
2023-01-18T23:51:17.156Z,3.90
2023-01-18T23:54:02.327Z,1.40
2023-01-18T23:56:34.105Z,1.40
2023-01-18T23:59:00.924Z,1.50
